createdAt,value
2023-02-09T00:02:37.887Z,11.23
2023-02-09T00:07:39.175Z,12.32
2023-02-09T00:12:59.347Z,11.52
2023-02-09T00:18:00.738Z,12.37
2023-02-09T00:23:02.122Z,12.75
2023-02-09T00:28:03.521Z,11.93
2023-02-09T00:33:04.892Z,11.65
2023-02-09T00:38:06.379Z,10.98
2023-02-09T00:43:08.227Z,11.03
2023-02-09T00:48:09.515Z,11.35
2023-02-09T00:53:10.759Z,14.87
2023-02-09T00:58:12.091Z,13.80
2023-02-09T01:03:13.458Z,15.77
2023-02-09T01:08:14.745Z,14.73
2023-02-09T01:13:16.094Z,10.77
2023-02-09T01:18:17.487Z,10.30
2023-02-09T01:23:18.767Z,10.95
2023-02-09T01:28:20.171Z,14.73
2023-02-09T01:33:21.483Z,10.77
2023-02-09T01:38:22.743Z,11.07
2023-02-09T01:43:23.998Z,9.43
2023-02-09T01:48:29.954Z,9.90
2023-02-09T01:53:32.052Z,10.10
2023-02-09T01:58:34.295Z,8.60
2023-02-09T02:03:35.585Z,9.18
2023-02-09T02:08:44.122Z,10.47
2023-02-09T02:13:45.704Z,10.68
2023-02-09T02:18:49.717Z,9.88
2023-02-09T02:23:50.995Z,9.93
2023-02-09T02:28:52.314Z,9.82
2023-02-09T02:33:59.464Z,8.80
2023-02-09T02:39:06.846Z,9.38
2023-02-09T02:44:12.555Z,10.63
2023-02-09T02:49:27.260Z,9.37
2023-02-09T02:54:29.638Z,9.38
2023-02-09T02:59:33.291Z,9.83
2023-02-09T03:04:35.754Z,10.43
2023-02-09T03:09:37.051Z,8.50
2023-02-09T03:20:01.396Z,10.25
2023-02-09T03:25:02.818Z,10.03
2023-02-09T03:30:05.097Z,10.43
2023-02-09T03:35:06.764Z,8.90
2023-02-09T03:40:08.817Z,10.10
2023-02-09T03:45:10.082Z,10.60
2023-02-09T03:50:11.409Z,11.73
2023-02-09T03:55:12.701Z,11.18
2023-02-09T04:00:14.259Z,10.40
2023-02-09T04:05:15.639Z,10.63
2023-02-09T04:10:17.281Z,11.32
2023-02-09T04:15:18.577Z,9.73
2023-02-09T04:20:19.839Z,10.73
2023-02-09T04:25:21.115Z,10.45
2023-02-09T04:30:22.394Z,10.30
2023-02-09T04:35:23.694Z,10.07
2023-02-09T04:40:24.956Z,10.40
2023-02-09T04:45:26.222Z,10.07
2023-02-09T04:50:27.562Z,10.18
2023-02-09T04:55:28.871Z,10.13
2023-02-09T05:00:30.287Z,11.45
2023-02-09T05:05:31.590Z,9.87
2023-02-09T05:10:33.024Z,11.05
2023-02-09T05:15:34.302Z,10.93
2023-02-09T05:20:36.421Z,10.13
2023-02-09T05:25:37.720Z,10.90
2023-02-09T05:30:38.998Z,10.83
2023-02-09T05:35:40.343Z,10.98
2023-02-09T05:40:42.767Z,10.32
2023-02-09T05:45:46.028Z,12.83
2023-02-09T05:50:47.590Z,12.07
2023-02-09T05:55:49.091Z,11.90
2023-02-09T06:00:50.376Z,10.65
2023-02-09T06:05:51.682Z,12.70
2023-02-09T06:10:53.007Z,15.00
2023-02-09T06:15:54.359Z,12.02
2023-02-09T06:20:55.639Z,10.47
2023-02-09T06:25:57.519Z,10.25
2023-02-09T06:30:59.029Z,11.77
2023-02-09T06:36:00.357Z,11.40
2023-02-09T06:41:01.782Z,11.80
2023-02-09T06:46:09.736Z,10.87
2023-02-09T06:51:12.211Z,12.07
2023-02-09T06:56:13.995Z,11.65
2023-02-09T07:01:16.114Z,11.37
2023-02-09T07:06:18.873Z,12.60
2023-02-09T07:11:20.212Z,11.90
2023-02-09T07:16:21.564Z,12.27
2023-02-09T07:21:22.974Z,12.65
2023-02-09T07:26:24.258Z,13.20
2023-02-09T07:31:27.031Z,11.68
2023-02-09T07:36:28.475Z,12.33
2023-02-09T07:41:29.886Z,12.70
2023-02-09T07:46:31.214Z,12.55
2023-02-09T07:51:34.280Z,12.47
2023-02-09T07:56:35.710Z,13.95
2023-02-09T08:01:37.052Z,12.57
2023-02-09T08:06:44.977Z,17.38
2023-02-09T08:11:49.083Z,12.52
2023-02-09T08:16:51.160Z,13.17
2023-02-09T08:21:52.431Z,13.50
2023-02-09T08:26:55.343Z,13.57
2023-02-09T08:31:56.726Z,13.00
2023-02-09T08:36:58.154Z,12.75
2023-02-09T08:41:59.509Z,12.00
2023-02-09T08:47:01.245Z,11.90
2023-02-09T08:52:02.675Z,12.00
2023-02-09T08:57:04.002Z,11.68
2023-02-09T09:02:05.309Z,11.32
2023-02-09T09:07:06.601Z,11.23
2023-02-09T09:12:07.988Z,11.88
2023-02-09T09:17:09.345Z,11.70
2023-02-09T09:22:10.684Z,10.73
2023-02-09T09:27:11.978Z,11.73
2023-02-09T09:32:16.552Z,13.10
2023-02-09T09:37:17.911Z,11.55
2023-02-09T09:42:33.413Z,10.60
2023-02-09T09:47:36.414Z,11.35
2023-02-09T09:52:38.566Z,11.75
2023-02-09T09:57:43.314Z,12.40
2023-02-09T10:02:45.019Z,11.75
2023-02-09T10:08:04.994Z,12.77
2023-02-09T10:13:26.100Z,11.98
2023-02-09T10:18:30.065Z,11.50
2023-02-09T10:23:42.218Z,11.77
2023-02-09T10:28:44.953Z,14.27
2023-02-09T10:33:49.776Z,13.43
2023-02-09T10:38:51.657Z,13.13
2023-02-09T10:43:53.045Z,15.40
2023-02-09T10:48:54.328Z,15.10
2023-02-09T10:53:55.655Z,15.35
2023-02-09T10:59:01.238Z,13.40
2023-02-09T11:04:04.052Z,13.07
2023-02-09T11:09:14.146Z,14.52
2023-02-09T11:14:19.817Z,13.13
2023-02-09T11:19:25.493Z,14.00
2023-02-09T11:24:38.809Z,14.53
2023-02-09T11:29:52.376Z,13.88
2023-02-09T11:35:00.828Z,13.63
2023-02-09T11:40:20.960Z,13.63
2023-02-09T11:45:28.101Z,17.95
2023-02-09T11:50:42.189Z,14.33
2023-02-09T11:55:46.719Z,15.00
2023-02-09T12:00:57.953Z,15.43
2023-02-09T12:06:01.487Z,13.80
2023-02-09T12:11:08.773Z,14.40
2023-02-09T12:16:19.638Z,14.50
2023-02-09T12:21:27.355Z,14.95
2023-02-09T12:26:41.202Z,13.80
2023-02-09T12:32:08.867Z,15.27
2023-02-09T12:37:13.017Z,13.10
2023-02-09T12:42:14.283Z,13.77
2023-02-09T12:47:34.400Z,13.18
2023-02-09T12:52:35.735Z,13.40
2023-02-09T12:57:50.468Z,14.13
2023-02-09T13:02:56.112Z,14.73
2023-02-09T13:08:00.433Z,12.97
2023-02-09T13:13:10.838Z,14.88
2023-02-09T13:18:15.280Z,12.68
2023-02-09T13:23:28.863Z,13.10
2023-02-09T13:28:30.270Z,13.95
2023-02-09T13:33:31.548Z,12.03
2023-02-09T13:38:34.025Z,13.52
2023-02-09T13:43:38.670Z,11.90
2023-02-09T13:48:39.997Z,12.60
2023-02-09T13:53:41.255Z,12.65
2023-02-09T13:58:42.617Z,12.43
2023-02-09T14:03:57.330Z,12.95
2023-02-09T14:09:00.058Z,13.35
2023-02-09T14:14:04.563Z,12.07
2023-02-09T14:19:25.509Z,11.48
2023-02-09T14:24:27.579Z,13.27
2023-02-09T14:29:30.063Z,11.35
2023-02-09T14:34:32.794Z,11.50
2023-02-09T14:39:34.056Z,11.47
2023-02-09T14:44:44.217Z,14.23
2023-02-09T14:49:45.557Z,11.23
2023-02-09T14:54:48.142Z,10.60
2023-02-09T14:59:50.329Z,10.73
2023-02-09T15:04:52.013Z,10.63
2023-02-09T15:09:53.379Z,10.00
2023-02-09T15:14:56.755Z,11.07
2023-02-09T15:19:58.301Z,9.80
2023-02-09T15:24:59.663Z,11.48
2023-02-09T15:30:04.365Z,11.70
2023-02-09T15:35:06.337Z,11.50
2023-02-09T15:40:46.703Z,12.63
2023-02-09T15:46:06.371Z,11.70
2023-02-09T15:51:07.925Z,11.68
2023-02-09T15:56:09.285Z,12.13
2023-02-09T16:01:13.026Z,12.23
2023-02-09T16:06:16.388Z,16.23
2023-02-09T16:11:21.753Z,13.65
2023-02-09T16:16:25.303Z,13.32
2023-02-09T16:21:28.788Z,11.87
2023-02-09T16:26:30.642Z,12.38
2023-02-09T16:31:32.049Z,16.50
2023-02-09T16:36:33.880Z,14.18
2023-02-09T16:41:47.088Z,16.35
2023-02-09T16:46:49.751Z,15.37
2023-02-09T16:51:51.067Z,14.27
2023-02-09T16:56:54.502Z,13.93
2023-02-09T17:01:59.680Z,15.48
2023-02-09T17:07:01.011Z,15.98
2023-02-09T17:12:02.260Z,13.73
2023-02-09T17:17:03.573Z,14.48
2023-02-09T17:22:09.517Z,18.07
2023-02-09T17:27:10.895Z,16.48
2023-02-09T17:32:14.262Z,16.17
2023-02-09T17:37:16.693Z,14.50
2023-02-09T17:42:20.858Z,17.17
2023-02-09T17:47:23.950Z,15.37
2023-02-09T17:52:25.231Z,15.10
2023-02-09T17:57:27.510Z,14.43
2023-02-09T18:02:28.989Z,15.00
2023-02-09T18:07:30.422Z,16.65
2023-02-09T18:12:31.701Z,18.00
2023-02-09T18:17:33.074Z,16.23
2023-02-09T18:22:34.503Z,14.60
2023-02-09T18:27:35.786Z,16.23
2023-02-09T18:32:37.111Z,13.68
2023-02-09T18:37:38.595Z,13.33
2023-02-09T18:42:39.971Z,15.65
2023-02-09T18:47:42.877Z,18.33
2023-02-09T18:52:46.241Z,15.87
2023-02-09T18:57:47.508Z,16.60
2023-02-09T19:02:49.515Z,19.20
2023-02-09T19:07:50.874Z,15.68
2023-02-09T19:12:52.259Z,18.45
2023-02-09T19:17:56.612Z,18.43
2023-02-09T19:22:58.347Z,19.40
2023-02-09T19:27:59.942Z,17.50
2023-02-09T19:33:02.021Z,16.20
2023-02-09T19:38:03.429Z,17.10
2023-02-09T19:43:05.865Z,15.47
2023-02-09T19:48:08.189Z,15.95
2023-02-09T19:53:09.461Z,14.70
2023-02-09T19:58:10.729Z,15.10
2023-02-09T20:03:13.433Z,17.70
2023-02-09T20:08:16.882Z,19.93
2023-02-09T20:13:18.175Z,18.48
2023-02-09T20:18:19.973Z,16.63
2023-02-09T20:23:21.444Z,17.85
2023-02-09T20:28:22.982Z,19.10
2023-02-09T20:33:24.368Z,21.63
2023-02-09T20:38:25.651Z,21.08
2023-02-09T20:43:45.753Z,17.80
2023-02-09T20:48:47.139Z,18.83
2023-02-09T20:53:48.399Z,15.32
2023-02-09T20:58:49.683Z,18.00
2023-02-09T21:03:51.121Z,18.75
2023-02-09T21:08:52.767Z,15.87
2023-02-09T21:13:55.021Z,16.17
2023-02-09T21:18:56.622Z,14.88
2023-02-09T21:23:59.074Z,14.53
2023-02-09T21:29:00.385Z,13.48
2023-02-09T21:34:01.792Z,13.70
2023-02-09T21:39:03.087Z,12.65
2023-02-09T21:44:04.812Z,15.88
2023-02-09T21:49:06.178Z,14.33
2023-02-09T21:54:07.572Z,16.63
2023-02-09T21:59:08.859Z,15.27
2023-02-09T22:04:10.204Z,17.35
2023-02-09T22:09:11.558Z,17.30
2023-02-09T22:14:12.888Z,15.13
2023-02-09T22:19:14.270Z,17.00
2023-02-09T22:24:17.214Z,15.37
2023-02-09T22:29:18.899Z,17.27
2023-02-09T22:34:20.272Z,16.95
2023-02-09T22:39:21.659Z,17.13
2023-02-09T22:44:22.963Z,16.42
2023-02-09T22:49:24.280Z,15.53
2023-02-09T22:54:25.606Z,15.55
2023-02-09T22:59:26.863Z,15.00
2023-02-09T23:04:28.623Z,16.83
2023-02-09T23:09:29.956Z,15.52
2023-02-09T23:14:31.245Z,14.53
2023-02-09T23:19:32.549Z,15.70
2023-02-09T23:24:33.815Z,15.48
2023-02-09T23:29:35.100Z,16.80
2023-02-09T23:34:36.546Z,16.20
2023-02-09T23:39:37.878Z,16.90
2023-02-09T23:44:39.223Z,15.02
2023-02-09T23:49:40.520Z,14.55
2023-02-09T23:54:41.803Z,15.80
2023-02-09T23:59:43.135Z,15.13
